sensor_id;sensor_type;location;lat;lon;timestamp;pressure;altitude;pressure_sealevel;temperature;humidity
50093;BME280;35974;47.752;10.290;2022-12-31T00:02:21;93987.72;;;10.51;89.10
50093;BME280;35974;47.752;10.290;2022-12-31T00:04:47;93994.09;;;10.22;89.47
50093;BME280;35974;47.752;10.290;2022-12-31T00:07:14;93984.44;;;10.22;90.24
50093;BME280;35974;47.752;10.290;2022-12-31T00:09:40;93982.97;;;10.00;91.66
50093;BME280;35974;47.752;10.290;2022-12-31T00:12:07;93985.97;;;9.97;93.34
50093;BME280;35974;47.752;10.290;2022-12-31T00:14:33;94004.44;;;9.88;94.78
50093;BME280;35974;47.752;10.290;2022-12-31T00:16:59;93974.97;;;9.60;96.18
50093;BME280;35974;47.752;10.290;2022-12-31T00:19:26;93935.56;;;9.48;96.37
50093;BME280;35974;47.752;10.290;2022-12-31T00:21:53;93983.09;;;9.78;97.65
50093;BME280;35974;47.752;10.290;2022-12-31T00:24:20;93961.75;;;9.68;96.90
50093;BME280;35974;47.752;10.290;2022-12-31T00:26:46;93968.19;;;9.65;98.02
50093;BME280;35974;47.752;10.290;2022-12-31T00:29:13;93981.09;;;9.80;97.97
50093;BME280;35974;47.752;10.290;2022-12-31T00:31:39;93962.69;;;9.53;99.40
50093;BME280;35974;47.752;10.290;2022-12-31T00:34:06;93970.16;;;9.57;100.00
50093;BME280;35974;47.752;10.290;2022-12-31T00:36:35;93985.72;;;9.78;99.77
50093;BME280;35974;47.752;10.290;2022-12-31T00:39:04;93975.38;;;9.57;99.44
50093;BME280;35974;47.752;10.290;2022-12-31T00:41:31;93968.56;;;9.56;99.30
50093;BME280;35974;47.752;10.290;2022-12-31T00:43:58;93977.06;;;9.84;98.55
50093;BME280;35974;47.752;10.290;2022-12-31T00:46:24;93961.44;;;9.98;97.14
50093;BME280;35974;47.752;10.290;2022-12-31T00:48:52;93971.09;;;10.04;97.54
50093;BME280;35974;47.752;10.290;2022-12-31T00:51:21;93976.50;;;9.96;98.20
50093;BME280;35974;47.752;10.290;2022-12-31T00:53:48;93970.28;;;9.97;97.99
50093;BME280;35974;47.752;10.290;2022-12-31T00:56:18;93956.78;;;9.80;97.88
50093;BME280;35974;47.752;10.290;2022-12-31T00:58:44;93969.59;;;9.75;98.06
50093;BME280;35974;47.752;10.290;2022-12-31T01:01:14;93973.84;;;9.82;97.85
50093;BME280;35974;47.752;10.290;2022-12-31T01:03:41;93971.06;;;9.90;97.06
50093;BME280;35974;47.752;10.290;2022-12-31T01:06:08;93979.97;;;10.03;96.10
50093;BME280;35974;47.752;10.290;2022-12-31T01:08:35;93951.38;;;9.81;96.33
50093;BME280;35974;47.752;10.290;2022-12-31T01:11:10;93977.88;;;9.71;95.95
50093;BME280;35974;47.752;10.290;2022-12-31T01:13:57;94005.25;;;9.96;96.88
50093;BME280;35974;47.752;10.290;2022-12-31T01:16:31;93988.72;;;9.75;96.70
50093;BME280;35974;47.752;10.290;2022-12-31T01:19:00;93985.94;;;9.83;95.05
50093;BME280;35974;47.752;10.290;2022-12-31T01:21:27;93975.50;;;9.97;94.81
50093;BME280;35974;47.752;10.290;2022-12-31T01:23:54;93975.94;;;10.14;93.73
50093;BME280;35974;47.752;10.290;2022-12-31T01:26:20;93989.59;;;10.02;94.60
50093;BME280;35974;47.752;10.290;2022-12-31T01:28:47;93983.75;;;10.00;93.70
50093;BME280;35974;47.752;10.290;2022-12-31T01:31:17;94010.56;;;10.09;94.40
50093;BME280;35974;47.752;10.290;2022-12-31T01:33:44;94015.78;;;10.09;94.34
50093;BME280;35974;47.752;10.290;2022-12-31T01:36:12;94012.97;;;10.17;94.13
50093;BME280;35974;47.752;10.290;2022-12-31T01:38:39;94021.47;;;10.33;91.65
50093;BME280;35974;47.752;10.290;2022-12-31T01:41:13;93994.50;;;10.25;91.09
50093;BME280;35974;47.752;10.290;2022-12-31T01:49:00;93974.03;;;10.62;87.59
50093;BME280;35974;47.752;10.290;2022-12-31T01:51:30;94013.88;;;11.05;87.03
50093;BME280;35974;47.752;10.290;2022-12-31T01:53:59;93995.53;;;11.05;86.54
50093;BME280;35974;47.752;10.290;2022-12-31T01:56:27;93988.09;;;11.15;84.59
50093;BME280;35974;47.752;10.290;2022-12-31T01:58:55;93993.47;;;11.40;85.33
50093;BME280;35974;47.752;10.290;2022-12-31T02:01:31;93986.44;;;11.41;84.19
50093;BME280;35974;47.752;10.290;2022-12-31T02:04:02;94008.16;;;11.48;84.81
50093;BME280;35974;47.752;10.290;2022-12-31T02:06:38;94007.72;;;11.58;83.90
50093;BME280;35974;47.752;10.290;2022-12-31T02:09:06;94003.69;;;11.55;83.33
50093;BME280;35974;47.752;10.290;2022-12-31T02:11:34;94010.50;;;11.69;83.75
50093;BME280;35974;47.752;10.290;2022-12-31T02:14:30;94010.97;;;11.53;84.68
50093;BME280;35974;47.752;10.290;2022-12-31T02:17:17;93990.41;;;11.50;84.06
50093;BME280;35974;47.752;10.290;2022-12-31T02:26:09;94022.97;;;11.81;82.34
50093;BME280;35974;47.752;10.290;2022-12-31T02:34:30;94000.31;;;12.06;80.95
50093;BME280;35974;47.752;10.290;2022-12-31T02:37:00;93995.13;;;11.93;80.65
50093;BME280;35974;47.752;10.290;2022-12-31T02:39:28;93988.25;;;11.92;81.27
50093;BME280;35974;47.752;10.290;2022-12-31T02:41:56;93971.25;;;12.08;80.02
50093;BME280;35974;47.752;10.290;2022-12-31T02:44:33;94004.22;;;12.29;79.54
50093;BME280;35974;47.752;10.290;2022-12-31T02:50:00;94011.44;;;12.40;78.73
50093;BME280;35974;47.752;10.290;2022-12-31T02:58:18;93994.41;;;12.50;78.52
50093;BME280;35974;47.752;10.290;2022-12-31T03:00:50;93947.34;;;12.23;78.16
50093;BME280;35974;47.752;10.290;2022-12-31T03:03:37;93987.66;;;12.35;78.66
50093;BME280;35974;47.752;10.290;2022-12-31T03:06:06;94002.16;;;12.38;77.48
50093;BME280;35974;47.752;10.290;2022-12-31T03:08:33;93998.88;;;12.42;77.66
50093;BME280;35974;47.752;10.290;2022-12-31T03:11:23;94013.53;;;12.57;77.16
50093;BME280;35974;47.752;10.290;2022-12-31T03:14:40;94020.09;;;12.73;76.22
50093;BME280;35974;47.752;10.290;2022-12-31T03:17:07;94043.94;;;12.71;76.40
50093;BME280;35974;47.752;10.290;2022-12-31T03:19:33;94049.09;;;12.85;74.27
50093;BME280;35974;47.752;10.290;2022-12-31T03:22:18;94029.88;;;12.91;75.01
50093;BME280;35974;47.752;10.290;2022-12-31T03:27:40;94016.16;;;12.89;76.34
50093;BME280;35974;47.752;10.290;2022-12-31T03:30:07;94023.06;;;13.08;75.71
50093;BME280;35974;47.752;10.290;2022-12-31T03:32:34;93987.44;;;12.62;75.77
50093;BME280;35974;47.752;10.290;2022-12-31T03:35:00;94021.97;;;12.91;76.25
50093;BME280;35974;47.752;10.290;2022-12-31T03:37:27;94020.78;;;12.87;75.69
50093;BME280;35974;47.752;10.290;2022-12-31T03:39:53;94029.16;;;13.02;75.39
50093;BME280;35974;47.752;10.290;2022-12-31T03:42:20;94023.09;;;13.27;73.53
50093;BME280;35974;47.752;10.290;2022-12-31T03:44:46;94027.06;;;13.11;74.38
50093;BME280;35974;47.752;10.290;2022-12-31T03:47:36;94067.09;;;13.06;74.88
50093;BME280;35974;47.752;10.290;2022-12-31T03:50:05;94068.63;;;13.21;74.23
50093;BME280;35974;47.752;10.290;2022-12-31T03:52:32;94074.97;;;13.38;72.69
50093;BME280;35974;47.752;10.290;2022-12-31T03:54:59;94021.41;;;13.39;72.88
50093;BME280;35974;47.752;10.290;2022-12-31T03:57:27;94003.53;;;13.23;71.71
50093;BME280;35974;47.752;10.290;2022-12-31T03:59:54;94035.16;;;13.09;73.30
50093;BME280;35974;47.752;10.290;2022-12-31T04:02:21;94057.00;;;13.35;73.94
50093;BME280;35974;47.752;10.290;2022-12-31T04:04:59;94038.75;;;13.40;72.95
50093;BME280;35974;47.752;10.290;2022-12-31T04:07:26;94025.28;;;13.30;73.18
50093;BME280;35974;47.752;10.290;2022-12-31T04:09:52;94029.28;;;13.39;73.52
50093;BME280;35974;47.752;10.290;2022-12-31T04:12:19;94023.59;;;13.42;71.83
50093;BME280;35974;47.752;10.290;2022-12-31T04:14:45;94026.66;;;13.58;71.99
50093;BME280;35974;47.752;10.290;2022-12-31T04:17:12;94043.91;;;13.53;72.46
50093;BME280;35974;47.752;10.290;2022-12-31T04:19:38;94071.06;;;13.47;73.24
50093;BME280;35974;47.752;10.290;2022-12-31T04:22:05;94052.94;;;13.39;73.39
50093;BME280;35974;47.752;10.290;2022-12-31T04:24:31;94054.91;;;13.18;73.36
50093;BME280;35974;47.752;10.290;2022-12-31T04:26:58;94080.31;;;13.25;75.21
50093;BME280;35974;47.752;10.290;2022-12-31T04:29:32;94018.00;;;12.81;74.79
50093;BME280;35974;47.752;10.290;2022-12-31T04:31:58;94024.28;;;12.80;76.51
50093;BME280;35974;47.752;10.290;2022-12-31T04:34:25;94073.66;;;12.97;75.93
50093;BME280;35974;47.752;10.290;2022-12-31T04:36:52;94108.28;;;13.12;76.45
50093;BME280;35974;47.752;10.290;2022-12-31T04:39:18;94096.94;;;13.18;75.45
50093;BME280;35974;47.752;10.290;2022-12-31T04:41:44;94081.75;;;13.21;74.84
50093;BME280;35974;47.752;10.290;2022-12-31T04:44:11;94077.19;;;13.09;75.67
50093;BME280;35974;47.752;10.290;2022-12-31T04:46:37;94104.53;;;13.27;76.04
50093;BME280;35974;47.752;10.290;2022-12-31T04:49:04;94075.44;;;12.71;77.04
50093;BME280;35974;47.752;10.290;2022-12-31T04:51:30;94044.59;;;12.28;78.57
50093;BME280;35974;47.752;10.290;2022-12-31T04:53:57;94046.91;;;12.50;76.94
50093;BME280;35974;47.752;10.290;2022-12-31T04:56:26;94081.28;;;12.41;77.74
50093;BME280;35974;47.752;10.290;2022-12-31T04:58:53;94090.97;;;12.34;77.98
50093;BME280;35974;47.752;10.290;2022-12-31T05:01:20;94102.69;;;12.38;78.35
50093;BME280;35974;47.752;10.290;2022-12-31T05:03:47;94111.06;;;12.08;79.65
50093;BME280;35974;47.752;10.290;2022-12-31T05:06:19;94111.47;;;12.05;79.93
50093;BME280;35974;47.752;10.290;2022-12-31T05:08:46;94101.19;;;11.97;80.65
50093;BME280;35974;47.752;10.290;2022-12-31T05:11:13;94073.41;;;11.69;80.24
50093;BME280;35974;47.752;10.290;2022-12-31T05:13:41;94056.97;;;11.22;81.82
50093;BME280;35974;47.752;10.290;2022-12-31T05:16:08;94073.09;;;11.19;82.75
50093;BME280;35974;47.752;10.290;2022-12-31T05:18:35;94090.03;;;11.10;83.34
50093;BME280;35974;47.752;10.290;2022-12-31T05:21:02;94113.41;;;11.11;82.98
50093;BME280;35974;47.752;10.290;2022-12-31T05:23:28;94101.69;;;10.87;83.05
50093;BME280;35974;47.752;10.290;2022-12-31T05:25:55;94120.63;;;10.96;83.02
50093;BME280;35974;47.752;10.290;2022-12-31T05:28:22;94100.47;;;10.83;82.85
50093;BME280;35974;47.752;10.290;2022-12-31T05:30:49;94138.34;;;10.87;82.66
50093;BME280;35974;47.752;10.290;2022-12-31T05:33:45;94135.91;;;10.86;82.77
50093;BME280;35974;47.752;10.290;2022-12-31T05:36:11;94110.91;;;10.70;82.93
50093;BME280;35974;47.752;10.290;2022-12-31T05:38:38;94109.09;;;10.63;82.88
50093;BME280;35974;47.752;10.290;2022-12-31T05:41:06;94110.13;;;10.62;83.46
50093;BME280;35974;47.752;10.290;2022-12-31T05:43:33;94103.66;;;10.72;82.95
50093;BME280;35974;47.752;10.290;2022-12-31T05:46:01;94107.91;;;10.73;82.75
50093;BME280;35974;47.752;10.290;2022-12-31T05:48:28;94102.69;;;10.73;83.12
50093;BME280;35974;47.752;10.290;2022-12-31T05:50:54;94123.00;;;10.71;83.57
50093;BME280;35974;47.752;10.290;2022-12-31T05:53:21;94130.28;;;10.82;83.63
50093;BME280;35974;47.752;10.290;2022-12-31T05:55:48;94098.03;;;10.75;83.75
50093;BME280;35974;47.752;10.290;2022-12-31T05:58:14;94126.25;;;10.99;83.83
50093;BME280;35974;47.752;10.290;2022-12-31T06:00:42;94106.34;;;10.92;83.18
50093;BME280;35974;47.752;10.290;2022-12-31T06:03:08;94128.69;;;11.08;82.95
50093;BME280;35974;47.752;10.290;2022-12-31T06:05:39;94128.69;;;11.08;84.13
50093;BME280;35974;47.752;10.290;2022-12-31T06:08:06;94119.44;;;11.12;82.84
50093;BME280;35974;47.752;10.290;2022-12-31T06:10:32;94103.72;;;11.12;83.06
50093;BME280;35974;47.752;10.290;2022-12-31T06:12:59;94095.66;;;11.20;82.65
50093;BME280;35974;47.752;10.290;2022-12-31T06:15:25;94146.84;;;11.43;83.01
50093;BME280;35974;47.752;10.290;2022-12-31T06:17:52;94091.22;;;10.87;83.15
50093;BME280;35974;47.752;10.290;2022-12-31T06:20:19;94122.25;;;11.17;83.41
50093;BME280;35974;47.752;10.290;2022-12-31T06:22:45;94101.69;;;11.14;83.32
50093;BME280;35974;47.752;10.290;2022-12-31T06:25:12;94117.41;;;11.34;83.16
50093;BME280;35974;47.752;10.290;2022-12-31T06:27:38;94117.84;;;11.31;82.37
50093;BME280;35974;47.752;10.290;2022-12-31T06:30:05;94125.88;;;11.36;82.93
50093;BME280;35974;47.752;10.290;2022-12-31T06:32:32;94131.53;;;11.33;83.57
50093;BME280;35974;47.752;10.290;2022-12-31T06:35:01;94165.38;;;11.48;83.45
50093;BME280;35974;47.752;10.290;2022-12-31T06:37:27;94134.75;;;11.28;83.83
50093;BME280;35974;47.752;10.290;2022-12-31T06:39:54;94146.44;;;11.59;84.85
50093;BME280;35974;47.752;10.290;2022-12-31T06:42:20;94121.44;;;11.36;86.55
50093;BME280;35974;47.752;10.290;2022-12-31T06:44:49;94151.28;;;11.42;87.42
50093;BME280;35974;47.752;10.290;2022-12-31T06:47:15;94152.06;;;11.56;87.20
50093;BME280;35974;47.752;10.290;2022-12-31T06:49:41;94128.28;;;11.24;87.41
50093;BME280;35974;47.752;10.290;2022-12-31T06:52:08;94151.50;;;11.41;86.53
50093;BME280;35974;47.752;10.290;2022-12-31T06:54:45;94151.25;;;11.35;86.26
50093;BME280;35974;47.752;10.290;2022-12-31T06:57:12;94171.44;;;11.68;86.36
50093;BME280;35974;47.752;10.290;2022-12-31T06:59:39;94134.34;;;11.45;86.95
50093;BME280;35974;47.752;10.290;2022-12-31T07:02:21;94177.69;;;11.94;85.44
50093;BME280;35974;47.752;10.290;2022-12-31T07:05:01;94144.38;;;11.88;84.83
50093;BME280;35974;47.752;10.290;2022-12-31T07:10:30;94164.94;;;11.91;85.96
50093;BME280;35974;47.752;10.290;2022-12-31T07:21:42;94162.94;;;11.80;87.33
50093;BME280;35974;47.752;10.290;2022-12-31T07:24:10;94168.97;;;11.87;87.55
50093;BME280;35974;47.752;10.290;2022-12-31T07:38:20;94187.53;;;12.19;87.00
50093;BME280;35974;47.752;10.290;2022-12-31T07:43:47;94188.13;;;12.14;87.22
50093;BME280;35974;47.752;10.290;2022-12-31T07:46:24;94177.84;;;12.13;87.08
50093;BME280;35974;47.752;10.290;2022-12-31T07:48:52;94160.88;;;12.08;85.16
50093;BME280;35974;47.752;10.290;2022-12-31T07:51:20;94154.06;;;12.07;85.00
50093;BME280;35974;47.752;10.290;2022-12-31T07:53:47;94156.84;;;12.13;85.94
50093;BME280;35974;47.752;10.290;2022-12-31T07:56:13;94153.22;;;12.14;85.41
50093;BME280;35974;47.752;10.290;2022-12-31T08:01:15;94129.75;;;12.32;84.29
50093;BME280;35974;47.752;10.290;2022-12-31T08:09:34;94182.78;;;12.48;85.06
50093;BME280;35974;47.752;10.290;2022-12-31T08:12:20;94160.00;;;12.41;83.88
50093;BME280;35974;47.752;10.290;2022-12-31T08:14:48;94114.88;;;12.19;83.73
50093;BME280;35974;47.752;10.290;2022-12-31T08:17:17;94176.41;;;12.75;83.36
50093;BME280;35974;47.752;10.290;2022-12-31T08:19:51;94163.16;;;12.57;83.66
50093;BME280;35974;47.752;10.290;2022-12-31T08:30:17;94154.16;;;12.78;82.59
50093;BME280;35974;47.752;10.290;2022-12-31T08:38:11;94184.47;;;13.12;82.05
50093;BME280;35974;47.752;10.290;2022-12-31T08:44:14;94181.78;;;12.94;82.02
50093;BME280;35974;47.752;10.290;2022-12-31T08:49:27;94185.09;;;13.14;81.51
50093;BME280;35974;47.752;10.290;2022-12-31T08:51:54;94150.69;;;13.23;79.53
50093;BME280;35974;47.752;10.290;2022-12-31T08:54:23;94133.34;;;13.15;79.92
50093;BME280;35974;47.752;10.290;2022-12-31T09:02:50;94196.88;;;14.13;78.98
50093;BME280;35974;47.752;10.290;2022-12-31T09:05:25;94197.06;;;13.93;79.02
50093;BME280;35974;47.752;10.290;2022-12-31T09:16:52;94200.59;;;14.05;80.06
50093;BME280;35974;47.752;10.290;2022-12-31T09:19:21;94168.84;;;13.81;81.13
50093;BME280;35974;47.752;10.290;2022-12-31T09:21:48;94167.84;;;14.01;80.12
50093;BME280;35974;47.752;10.290;2022-12-31T09:24:15;94200.63;;;14.42;78.36
50093;BME280;35974;47.752;10.290;2022-12-31T09:29:46;94213.25;;;13.39;83.57
50093;BME280;35974;47.752;10.290;2022-12-31T09:32:22;94210.25;;;13.29;83.63
50093;BME280;35974;47.752;10.290;2022-12-31T09:37:46;94227.84;;;13.28;84.31
50093;BME280;35974;47.752;10.290;2022-12-31T09:40:32;94231.19;;;13.10;83.87
50093;BME280;35974;47.752;10.290;2022-12-31T09:49:23;94217.63;;;13.52;84.10
50093;BME280;35974;47.752;10.290;2022-12-31T09:55:54;94212.78;;;13.74;83.01
50093;BME280;35974;47.752;10.290;2022-12-31T09:58:20;94208.00;;;13.64;82.96
50093;BME280;35974;47.752;10.290;2022-12-31T10:01:16;94208.09;;;13.83;83.19
50093;BME280;35974;47.752;10.290;2022-12-31T10:06:27;94181.50;;;13.91;83.15
50093;BME280;35974;47.752;10.290;2022-12-31T10:26:36;94187.91;;;14.57;79.19
50093;BME280;35974;47.752;10.290;2022-12-31T10:32:33;94196.38;;;14.96;78.00
50093;BME280;35974;47.752;10.290;2022-12-31T10:37:45;94173.44;;;14.85;76.93
50093;BME280;35974;47.752;10.290;2022-12-31T10:43:50;94184.25;;;15.37;73.30
50093;BME280;35974;47.752;10.290;2022-12-31T10:52:51;94175.53;;;15.37;73.05
50093;BME280;35974;47.752;10.290;2022-12-31T10:55:45;94171.31;;;15.48;74.58
50093;BME280;35974;47.752;10.290;2022-12-31T11:01:47;94148.13;;;15.50;72.80
50093;BME280;35974;47.752;10.290;2022-12-31T11:04:35;94160.88;;;15.53;73.36
50093;BME280;35974;47.752;10.290;2022-12-31T11:18:50;94123.66;;;15.85;72.64
50093;BME280;35974;47.752;10.290;2022-12-31T11:27:13;94144.28;;;16.11;73.80
50093;BME280;35974;47.752;10.290;2022-12-31T11:32:45;94133.84;;;16.28;72.90
50093;BME280;35974;47.752;10.290;2022-12-31T11:35:37;94109.16;;;16.23;72.74
50093;BME280;35974;47.752;10.290;2022-12-31T11:38:30;94125.41;;;16.43;72.20
50093;BME280;35974;47.752;10.290;2022-12-31T11:44:17;94091.44;;;16.35;69.53
50093;BME280;35974;47.752;10.290;2022-12-31T11:46:57;94127.41;;;16.65;68.74
50093;BME280;35974;47.752;10.290;2022-12-31T11:55:40;94113.00;;;16.56;68.79
50093;BME280;35974;47.752;10.290;2022-12-31T11:58:17;94115.41;;;16.45;68.77
50093;BME280;35974;47.752;10.290;2022-12-31T12:00:54;94105.22;;;16.37;69.52
50093;BME280;35974;47.752;10.290;2022-12-31T12:03:21;94098.38;;;16.13;69.72
50093;BME280;35974;47.752;10.290;2022-12-31T12:05:50;94084.03;;;16.20;68.32
50093;BME280;35974;47.752;10.290;2022-12-31T12:08:16;94073.25;;;16.22;68.29
50093;BME280;35974;47.752;10.290;2022-12-31T12:10:47;94109.75;;;16.25;68.23
50093;BME280;35974;47.752;10.290;2022-12-31T12:13:26;94058.13;;;15.93;67.89
50093;BME280;35974;47.752;10.290;2022-12-31T12:15:58;94091.91;;;16.32;67.52
50093;BME280;35974;47.752;10.290;2022-12-31T12:18:33;94084.03;;;16.20;66.23
50093;BME280;35974;47.752;10.290;2022-12-31T12:21:11;94059.34;;;16.15;68.53
50093;BME280;35974;47.752;10.290;2022-12-31T12:23:40;94015.84;;;15.77;69.11
50093;BME280;35974;47.752;10.290;2022-12-31T12:29:11;94059.13;;;16.28;68.71
50093;BME280;35974;47.752;10.290;2022-12-31T12:31:39;94089.47;;;16.42;68.30
50093;BME280;35974;47.752;10.290;2022-12-31T12:34:21;94095.16;;;16.63;68.04
50093;BME280;35974;47.752;10.290;2022-12-31T12:36:48;94072.13;;;16.46;67.16
50093;BME280;35974;47.752;10.290;2022-12-31T12:39:20;94021.84;;;16.13;66.79
50093;BME280;35974;47.752;10.290;2022-12-31T12:44:29;94052.69;;;16.24;67.22
50093;BME280;35974;47.752;10.290;2022-12-31T12:46:57;94048.78;;;16.15;65.87
50093;BME280;35974;47.752;10.290;2022-12-31T12:49:28;94051.00;;;16.06;65.96
50093;BME280;35974;47.752;10.290;2022-12-31T13:04:17;94072.44;;;16.09;66.43
50093;BME280;35974;47.752;10.290;2022-12-31T13:07:15;94083.22;;;16.20;64.83
50093;BME280;35974;47.752;10.290;2022-12-31T13:12:28;94071.56;;;15.92;65.45
50093;BME280;35974;47.752;10.290;2022-12-31T13:15:41;94056.06;;;15.72;66.12
50093;BME280;35974;47.752;10.290;2022-12-31T13:26:27;94078.78;;;15.61;66.16
50093;BME280;35974;47.752;10.290;2022-12-31T13:29:02;94087.97;;;15.70;65.19
50093;BME280;35974;47.752;10.290;2022-12-31T13:31:36;94092.31;;;15.41;65.91
50093;BME280;35974;47.752;10.290;2022-12-31T13:34:12;94080.25;;;15.33;65.57
50093;BME280;35974;47.752;10.290;2022-12-31T13:36:41;94065.38;;;15.27;65.18
50093;BME280;35974;47.752;10.290;2022-12-31T13:39:27;94085.28;;;15.23;66.22
50093;BME280;35974;47.752;10.290;2022-12-31T13:42:10;94076.00;;;15.20;67.00
50093;BME280;35974;47.752;10.290;2022-12-31T13:45:00;94080.03;;;15.23;66.94
50093;BME280;35974;47.752;10.290;2022-12-31T13:47:48;94072.91;;;15.12;66.64
50093;BME280;35974;47.752;10.290;2022-12-31T13:50:25;94091.56;;;15.10;69.42
50093;BME280;35974;47.752;10.290;2022-12-31T13:53:06;94095.53;;;14.89;74.84
50093;BME280;35974;47.752;10.290;2022-12-31T13:55:43;94085.75;;;14.78;74.51
50093;BME280;35974;47.752;10.290;2022-12-31T13:58:36;94088.84;;;14.75;74.26
50093;BME280;35974;47.752;10.290;2022-12-31T14:01:18;94099.50;;;14.80;73.18
50093;BME280;35974;47.752;10.290;2022-12-31T14:09:16;94091.34;;;14.70;73.77
50093;BME280;35974;47.752;10.290;2022-12-31T14:20:29;94100.56;;;13.68;79.28
50093;BME280;35974;47.752;10.290;2022-12-31T14:25:51;94088.59;;;13.53;78.02
50093;BME280;35974;47.752;10.290;2022-12-31T14:28:28;94079.00;;;13.41;78.67
50093;BME280;35974;47.752;10.290;2022-12-31T14:31:04;94083.28;;;13.60;77.16
50093;BME280;35974;47.752;10.290;2022-12-31T14:33:47;94092.72;;;13.43;77.25
50093;BME280;35974;47.752;10.290;2022-12-31T14:36:27;94079.06;;;13.27;77.18
50093;BME280;35974;47.752;10.290;2022-12-31T14:41:52;94108.44;;;13.17;77.20
50093;BME280;35974;47.752;10.290;2022-12-31T14:47:54;94119.03;;;12.79;79.05
50093;BME280;35974;47.752;10.290;2022-12-31T14:50:25;94116.31;;;12.54;79.89
50093;BME280;35974;47.752;10.290;2022-12-31T14:53:22;94112.84;;;12.15;82.70
50093;BME280;35974;47.752;10.290;2022-12-31T14:56:01;94112.50;;;11.98;83.53
50093;BME280;35974;47.752;10.290;2022-12-31T14:58:34;94045.22;;;11.58;82.36
50093;BME280;35974;47.752;10.290;2022-12-31T15:03:44;94118.16;;;11.75;83.63
50093;BME280;35974;47.752;10.290;2022-12-31T15:06:53;94128.66;;;11.88;82.96
50093;BME280;35974;47.752;10.290;2022-12-31T15:12:05;94121.84;;;11.47;83.73
50093;BME280;35974;47.752;10.290;2022-12-31T15:14:58;94113.38;;;11.45;83.90
50093;BME280;35974;47.752;10.290;2022-12-31T15:23:32;94113.75;;;10.88;85.70
50093;BME280;35974;47.752;10.290;2022-12-31T15:26:04;94112.38;;;10.92;84.77
50093;BME280;35974;47.752;10.290;2022-12-31T15:28:37;94129.44;;;10.68;85.72
50093;BME280;35974;47.752;10.290;2022-12-31T15:31:18;94101.25;;;10.63;85.07
50093;BME280;35974;47.752;10.290;2022-12-31T15:34:18;94132.25;;;10.73;85.76
50093;BME280;35974;47.752;10.290;2022-12-31T15:36:58;94094.31;;;10.36;85.96
50093;BME280;35974;47.752;10.290;2022-12-31T15:39:34;94135.00;;;10.45;85.76
50093;BME280;35974;47.752;10.290;2022-12-31T15:42:01;94134.94;;;10.32;85.27
50093;BME280;35974;47.752;10.290;2022-12-31T15:44:53;94113.84;;;9.92;86.55
50093;BME280;35974;47.752;10.290;2022-12-31T15:47:39;94139.59;;;9.95;87.03
50093;BME280;35974;47.752;10.290;2022-12-31T15:50:14;94147.44;;;9.95;87.82
50093;BME280;35974;47.752;10.290;2022-12-31T15:53:04;94140.78;;;9.92;86.56
50093;BME280;35974;47.752;10.290;2022-12-31T15:55:46;94113.50;;;9.38;88.59
50093;BME280;35974;47.752;10.290;2022-12-31T15:58:33;94136.13;;;9.52;88.97
50093;BME280;35974;47.752;10.290;2022-12-31T16:01:24;94132.50;;;9.53;87.29
50093;BME280;35974;47.752;10.290;2022-12-31T16:04:05;94113.28;;;9.11;89.40
50093;BME280;35974;47.752;10.290;2022-12-31T16:06:37;94125.84;;;9.23;89.58
50093;BME280;35974;47.752;10.290;2022-12-31T16:09:27;94133.09;;;9.27;89.12
50093;BME280;35974;47.752;10.290;2022-12-31T16:12:07;94120.47;;;9.03;89.76
50093;BME280;35974;47.752;10.290;2022-12-31T16:17:42;94122.50;;;9.07;88.65
50093;BME280;35974;47.752;10.290;2022-12-31T16:20:27;94129.34;;;8.65;89.84
50093;BME280;35974;47.752;10.290;2022-12-31T16:23:00;94135.22;;;8.89;88.75
50093;BME280;35974;47.752;10.290;2022-12-31T16:25:32;94131.59;;;8.90;88.22
50093;BME280;35974;47.752;10.290;2022-12-31T16:28:01;94100.88;;;9.13;87.73
50093;BME280;35974;47.752;10.290;2022-12-31T16:30:32;94118.78;;;8.73;89.56
50093;BME280;35974;47.752;10.290;2022-12-31T16:33:03;94145.88;;;9.15;88.04
50093;BME280;35974;47.752;10.290;2022-12-31T16:35:53;94144.25;;;8.71;90.36
50093;BME280;35974;47.752;10.290;2022-12-31T16:38:20;94148.09;;;8.54;91.04
50093;BME280;35974;47.752;10.290;2022-12-31T16:43:38;94146.88;;;8.20;94.32
50093;BME280;35974;47.752;10.290;2022-12-31T16:46:30;94162.50;;;8.20;94.49
50093;BME280;35974;47.752;10.290;2022-12-31T16:48:59;94159.06;;;8.34;94.12
50093;BME280;35974;47.752;10.290;2022-12-31T16:51:30;94156.56;;;8.26;93.61
50093;BME280;35974;47.752;10.290;2022-12-31T16:53:58;94155.84;;;8.32;93.59
50093;BME280;35974;47.752;10.290;2022-12-31T16:56:35;94143.19;;;8.29;92.44
50093;BME280;35974;47.752;10.290;2022-12-31T16:59:39;94156.03;;;8.46;91.95
50093;BME280;35974;47.752;10.290;2022-12-31T17:02:17;94138.03;;;8.51;91.22
50093;BME280;35974;47.752;10.290;2022-12-31T17:04:49;94154.28;;;8.53;91.33
50093;BME280;35974;47.752;10.290;2022-12-31T17:10:15;94159.03;;;8.13;93.40
50093;BME280;35974;47.752;10.290;2022-12-31T17:13:04;94134.22;;;8.02;92.83
50093;BME280;35974;47.752;10.290;2022-12-31T17:15:57;94140.41;;;7.86;93.56
50093;BME280;35974;47.752;10.290;2022-12-31T17:18:32;94136.13;;;7.93;92.24
50093;BME280;35974;47.752;10.290;2022-12-31T17:21:08;94172.03;;;7.83;93.48
50093;BME280;35974;47.752;10.290;2022-12-31T17:23:36;94177.00;;;8.07;92.02
50093;BME280;35974;47.752;10.290;2022-12-31T17:26:23;94167.94;;;7.74;93.28
50093;BME280;35974;47.752;10.290;2022-12-31T17:28:52;94173.31;;;7.87;93.13
50093;BME280;35974;47.752;10.290;2022-12-31T17:36:55;94172.16;;;7.90;93.12
50093;BME280;35974;47.752;10.290;2022-12-31T17:39:23;94134.84;;;7.59;93.67
50093;BME280;35974;47.752;10.290;2022-12-31T17:41:51;94182.81;;;7.80;94.04
50093;BME280;35974;47.752;10.290;2022-12-31T17:44:22;94192.78;;;7.61;94.33